createdAt,value
2023-01-02T00:00:31.371Z,989.10
2023-01-02T00:01:31.355Z,989.04
2023-01-02T00:02:31.433Z,988.92
2023-01-02T00:03:31.400Z,988.93
2023-01-02T00:04:31.213Z,988.94
2023-01-02T00:05:31.193Z,988.95
2023-01-02T00:06:31.178Z,989.00
2023-01-02T00:07:31.190Z,989.00
2023-01-02T00:08:31.191Z,989.04
2023-01-02T00:09:31.292Z,989.09
2023-01-02T00:10:31.243Z,989.10
2023-01-02T00:11:31.120Z,989.21
2023-01-02T00:12:31.134Z,989.10
2023-01-02T00:13:31.125Z,989.05
2023-01-02T00:14:31.072Z,989.03
2023-01-02T00:15:31.063Z,989.02
2023-01-02T00:16:31.119Z,989.02
2023-01-02T00:17:31.067Z,989.09
2023-01-02T00:18:31.033Z,989.02
2023-01-02T00:19:31.112Z,988.96
2023-01-02T00:20:31.004Z,988.89
2023-01-02T00:21:30.995Z,988.92
2023-01-02T00:22:31.006Z,988.93
2023-01-02T00:23:30.962Z,989.01
2023-01-02T00:24:30.944Z,988.94
2023-01-02T00:25:30.930Z,988.98
2023-01-02T00:26:30.922Z,988.85
2023-01-02T00:27:30.932Z,988.85
2023-01-02T00:28:30.898Z,988.83
2023-01-02T00:29:30.883Z,988.83
2023-01-02T00:30:37.657Z,988.83
2023-01-02T00:31:31.944Z,988.86
2023-01-02T00:32:30.921Z,988.79
2023-01-02T00:33:30.940Z,988.79
2023-01-02T00:34:30.810Z,988.74
2023-01-02T00:35:30.924Z,988.77
2023-01-02T00:36:30.798Z,988.73
2023-01-02T00:37:31.007Z,988.74
2023-01-02T00:38:30.941Z,988.75
2023-01-02T00:39:30.743Z,988.71
2023-01-02T00:40:30.741Z,988.65
2023-01-02T00:41:30.719Z,988.70
2023-01-02T00:42:30.732Z,988.67
2023-01-02T00:43:30.690Z,988.67
2023-01-02T00:44:30.683Z,988.62
2023-01-02T00:45:30.665Z,988.58
2023-01-02T00:46:30.670Z,988.61
2023-01-02T00:47:30.665Z,988.55
2023-01-02T00:48:30.661Z,988.51
2023-01-02T00:49:30.618Z,988.51
2023-01-02T00:50:30.612Z,988.46
2023-01-02T00:51:30.599Z,988.47
2023-01-02T00:52:30.579Z,988.45
2023-01-02T00:53:30.589Z,988.48
2023-01-02T00:54:30.553Z,988.42
2023-01-02T00:55:30.595Z,988.45
2023-01-02T00:56:30.526Z,988.47
2023-01-02T00:57:30.507Z,988.56
2023-01-02T00:58:30.526Z,988.47
2023-01-02T00:59:30.479Z,988.46
2023-01-02T01:00:30.692Z,988.56
2023-01-02T01:01:30.640Z,988.57
2023-01-02T01:02:30.510Z,988.55
2023-01-02T01:03:30.663Z,988.56
2023-01-02T01:04:30.419Z,988.53
2023-01-02T01:05:30.467Z,988.61
2023-01-02T01:06:30.622Z,988.59
2023-01-02T01:07:30.422Z,988.59
2023-01-02T01:08:30.406Z,988.66
2023-01-02T01:09:30.365Z,988.67
2023-01-02T01:10:30.338Z,988.60
2023-01-02T01:11:30.321Z,988.62
2023-01-02T01:12:30.320Z,988.59
2023-01-02T01:13:30.327Z,988.52
2023-01-02T01:14:30.288Z,988.51
2023-01-02T01:15:30.269Z,988.55
2023-01-02T01:16:30.309Z,988.52
2023-01-02T01:17:30.239Z,988.56
2023-01-02T01:18:30.270Z,988.52
2023-01-02T01:19:30.287Z,988.52
2023-01-02T01:20:30.211Z,988.44
2023-01-02T01:21:30.197Z,988.49
2023-01-02T01:22:30.192Z,988.54
2023-01-02T01:23:30.189Z,988.52
2023-01-02T01:24:30.148Z,988.61
2023-01-02T01:25:30.138Z,988.64
2023-01-02T01:26:30.128Z,988.59
2023-01-02T01:27:30.118Z,988.65
2023-01-02T01:28:30.132Z,988.72
2023-01-02T01:29:30.108Z,988.66
2023-01-02T01:30:30.081Z,988.70
2023-01-02T01:31:30.078Z,988.74
2023-01-02T01:32:30.049Z,988.72
2023-01-02T01:33:30.066Z,988.75
2023-01-02T01:34:30.034Z,988.74
2023-01-02T01:35:30.007Z,988.76
2023-01-02T01:36:30.009Z,988.73
2023-01-02T01:37:30.397Z,988.71
2023-01-02T01:38:30.013Z,988.69
2023-01-02T01:39:29.964Z,988.69
2023-01-02T01:40:29.953Z,988.72
2023-01-02T01:41:29.931Z,988.64
2023-01-02T01:42:29.919Z,988.61
2023-01-02T01:43:29.927Z,988.55
2023-01-02T01:44:29.903Z,988.56
2023-01-02T01:45:29.926Z,988.41
2023-01-02T01:46:29.872Z,988.49
2023-01-02T01:47:29.855Z,988.55
2023-01-02T01:48:29.889Z,988.56
2023-01-02T01:49:29.831Z,988.51
2023-01-02T01:50:29.816Z,988.58
2023-01-02T01:51:29.804Z,988.58
2023-01-02T01:52:29.795Z,988.58
2023-01-02T01:53:29.798Z,988.60
2023-01-02T01:54:29.767Z,988.64
2023-01-02T01:55:29.753Z,988.58
2023-01-02T01:56:29.737Z,988.69
2023-01-02T01:57:29.717Z,988.69
2023-01-02T01:58:29.755Z,988.65
2023-01-02T01:59:29.701Z,988.67
2023-01-02T02:00:29.691Z,988.68
2023-01-02T02:01:29.883Z,988.59
2023-01-02T02:02:29.800Z,988.63
2023-01-02T02:03:29.666Z,988.60
2023-01-02T02:04:29.627Z,988.63
2023-01-02T02:05:29.617Z,988.60
2023-01-02T02:06:29.615Z,988.55
2023-01-02T02:07:29.613Z,988.53
2023-01-02T02:08:29.619Z,988.55
2023-01-02T02:09:29.567Z,988.58
2023-01-02T02:10:29.560Z,988.50
2023-01-02T02:11:29.537Z,988.51
2023-01-02T02:12:29.539Z,988.49
2023-01-02T02:13:29.537Z,988.49
2023-01-02T02:14:29.512Z,988.54
2023-01-02T02:15:29.488Z,988.50
2023-01-02T02:16:29.529Z,988.53
2023-01-02T02:17:29.456Z,988.44
2023-01-02T02:18:29.479Z,988.42
2023-01-02T02:19:29.441Z,988.44
2023-01-02T02:20:29.438Z,988.42
2023-01-02T02:21:29.408Z,988.46
2023-01-02T02:22:29.397Z,988.40
2023-01-02T02:23:29.410Z,988.46
2023-01-02T02:24:29.377Z,988.39
2023-01-02T02:25:29.346Z,988.38
2023-01-02T02:26:29.345Z,988.43
2023-01-02T02:27:29.330Z,988.34
2023-01-02T02:28:29.350Z,988.35
2023-01-02T02:29:29.296Z,988.32
2023-01-02T02:30:29.300Z,988.33
2023-01-02T02:31:29.303Z,988.29
2023-01-02T02:32:29.277Z,988.27
2023-01-02T02:33:29.278Z,988.31
2023-01-02T02:34:29.259Z,988.33
2023-01-02T02:35:29.248Z,988.29
2023-01-02T02:36:29.226Z,988.29
2023-01-02T02:37:29.209Z,988.25
2023-01-02T02:38:29.219Z,988.23
2023-01-02T02:39:29.483Z,988.23
2023-01-02T02:40:29.156Z,988.26
2023-01-02T02:41:29.147Z,988.18
2023-01-02T02:42:29.126Z,988.19
2023-01-02T02:43:29.147Z,988.26
2023-01-02T02:44:29.104Z,988.27
2023-01-02T02:45:29.166Z,988.35
2023-01-02T02:46:29.076Z,988.32
2023-01-02T02:47:29.075Z,988.30
2023-01-02T02:48:29.078Z,988.26
2023-01-02T02:49:29.046Z,988.29
2023-01-02T02:50:29.027Z,988.25
2023-01-02T02:51:29.018Z,988.27
2023-01-02T02:52:29.066Z,988.20
2023-01-02T02:53:29.016Z,988.23
2023-01-02T02:54:28.978Z,988.22
2023-01-02T02:55:29.018Z,988.23
2023-01-02T02:56:28.952Z,988.20
2023-01-02T02:57:28.942Z,988.15
2023-01-02T02:58:28.947Z,988.30
2023-01-02T02:59:28.916Z,988.32
2023-01-02T03:00:28.900Z,988.17
2023-01-02T03:01:30.912Z,988.27
2023-01-02T03:02:28.996Z,988.28
2023-01-02T03:03:28.937Z,988.31
2023-01-02T03:04:28.857Z,988.27
2023-01-02T03:05:28.846Z,988.18
2023-01-02T03:06:28.818Z,988.27
2023-01-02T03:07:28.819Z,988.29
2023-01-02T03:08:33.052Z,988.24
2023-01-02T03:09:28.786Z,988.18
2023-01-02T03:10:28.769Z,988.16
2023-01-02T03:11:28.757Z,988.22
2023-01-02T03:12:28.736Z,988.23
2023-01-02T03:13:28.765Z,988.20
2023-01-02T03:14:28.715Z,988.15
2023-01-02T03:15:28.707Z,988.10
2023-01-02T03:16:28.683Z,988.21
2023-01-02T03:17:28.685Z,988.28
2023-01-02T03:18:28.662Z,988.18
2023-01-02T03:19:28.685Z,988.13
2023-01-02T03:20:28.641Z,988.19
2023-01-02T03:21:31.407Z,988.10
2023-01-02T03:22:28.618Z,988.18
2023-01-02T03:23:28.596Z,988.13
2023-01-02T03:24:28.613Z,988.21
2023-01-02T03:25:28.573Z,988.12
2023-01-02T03:26:28.555Z,988.06
2023-01-02T03:27:28.547Z,988.09
2023-01-02T03:28:28.536Z,988.08
2023-01-02T03:29:28.556Z,988.15
2023-01-02T03:30:28.585Z,988.14
2023-01-02T03:31:28.494Z,988.17
2023-01-02T03:32:28.479Z,988.19
2023-01-02T03:33:28.466Z,988.17
2023-01-02T03:34:28.485Z,988.22
2023-01-02T03:35:28.471Z,988.22
2023-01-02T03:36:28.425Z,988.15
2023-01-02T03:37:28.421Z,988.10
2023-01-02T03:38:28.414Z,988.14
2023-01-02T03:39:28.419Z,988.22
2023-01-02T03:40:28.380Z,988.19
2023-01-02T03:41:28.380Z,988.21
2023-01-02T03:42:28.361Z,988.19
2023-01-02T03:43:28.336Z,988.18
2023-01-02T03:44:28.355Z,988.19
2023-01-02T03:45:28.316Z,988.19
2023-01-02T03:46:28.324Z,988.19
2023-01-02T03:47:28.290Z,988.13
2023-01-02T03:48:28.266Z,988.08
2023-01-02T03:49:28.294Z,988.02
2023-01-02T03:50:28.236Z,988.04
2023-01-02T03:51:28.244Z,988.11
2023-01-02T03:52:28.221Z,988.15
2023-01-02T03:53:28.214Z,988.14
2023-01-02T03:54:28.232Z,988.13
2023-01-02T03:55:28.183Z,988.17
2023-01-02T03:56:28.182Z,988.15
2023-01-02T03:57:28.157Z,988.14
2023-01-02T03:58:28.140Z,988.24
2023-01-02T03:59:28.170Z,988.14
2023-01-02T04:00:28.116Z,988.13
2023-01-02T04:01:28.154Z,988.15
2023-01-02T04:02:28.362Z,988.13
2023-01-02T04:03:28.117Z,988.06
2023-01-02T04:04:28.090Z,988.05
2023-01-02T04:05:28.055Z,988.14
2023-01-02T04:06:28.043Z,988.12
2023-01-02T04:07:28.038Z,988.14
2023-01-02T04:08:28.013Z,988.12
2023-01-02T04:09:28.036Z,988.15
2023-01-02T04:10:27.984Z,988.17
2023-01-02T04:11:27.977Z,988.19
2023-01-02T04:12:27.958Z,988.17
2023-01-02T04:13:27.947Z,988.22
2023-01-02T04:14:27.964Z,988.22
2023-01-02T04:15:28.080Z,988.24
2023-01-02T04:16:27.912Z,988.28
2023-01-02T04:17:27.895Z,988.15
2023-01-02T04:18:27.876Z,988.21
2023-01-02T04:19:27.898Z,988.16
2023-01-02T04:20:27.866Z,988.22
2023-01-02T04:21:27.846Z,988.22
2023-01-02T04:22:27.826Z,988.25
2023-01-02T04:23:27.826Z,988.26
2023-01-02T04:24:27.836Z,988.27
2023-01-02T04:25:27.794Z,988.31
2023-01-02T04:26:27.775Z,988.30
2023-01-02T04:27:27.770Z,988.31
2023-01-02T04:28:27.747Z,988.38
2023-01-02T04:29:27.767Z,988.31
2023-01-02T04:30:27.716Z,988.35
2023-01-02T04:31:27.833Z,988.27
2023-01-02T04:32:27.706Z,988.31
2023-01-02T04:33:27.689Z,988.24
2023-01-02T04:34:27.694Z,988.25
2023-01-02T04:35:27.675Z,988.24
2023-01-02T04:36:27.636Z,988.21
2023-01-02T04:37:27.638Z,988.20
2023-01-02T04:38:27.619Z,988.23
2023-01-02T04:39:27.689Z,988.22
2023-01-02T04:40:27.591Z,988.24
2023-01-02T04:41:27.587Z,988.22
2023-01-02T04:42:27.564Z,988.25
2023-01-02T04:43:27.557Z,988.27
2023-01-02T04:44:27.570Z,988.28
2023-01-02T04:45:27.533Z,988.31
2023-01-02T04:46:27.569Z,988.35
2023-01-02T04:47:27.507Z,988.28
2023-01-02T04:48:27.486Z,988.29
2023-01-02T04:49:27.518Z,988.31
2023-01-02T04:50:27.463Z,988.27
2023-01-02T04:51:27.465Z,988.37
2023-01-02T04:52:30.722Z,988.28
2023-01-02T04:53:28.426Z,988.33
2023-01-02T04:54:27.437Z,988.29
2023-01-02T04:55:27.396Z,988.34
2023-01-02T04:56:27.464Z,988.38
2023-01-02T04:57:27.377Z,988.42
2023-01-02T04:58:27.356Z,988.30
2023-01-02T04:59:27.374Z,988.35
2023-01-02T05:00:27.335Z,988.35
2023-01-02T05:01:27.435Z,988.33
2023-01-02T05:02:27.553Z,988.30
2023-01-02T05:03:27.351Z,988.38
2023-01-02T05:04:27.321Z,988.35
2023-01-02T05:05:27.265Z,988.37
2023-01-02T05:06:27.263Z,988.30
2023-01-02T05:07:27.237Z,988.35
2023-01-02T05:08:27.235Z,988.34
2023-01-02T05:09:27.248Z,988.33
2023-01-02T05:10:27.208Z,988.40
2023-01-02T05:11:27.185Z,988.34
2023-01-02T05:12:27.185Z,988.35
2023-01-02T05:13:27.166Z,988.33
2023-01-02T05:14:27.183Z,988.42
2023-01-02T05:15:27.136Z,988.41
2023-01-02T05:16:27.175Z,988.40
2023-01-02T05:17:27.105Z,988.39
2023-01-02T05:18:27.102Z,988.50
2023-01-02T05:19:27.109Z,988.44
2023-01-02T05:20:27.074Z,988.37
2023-01-02T05:21:27.077Z,988.50
2023-01-02T05:22:27.052Z,988.42
2023-01-02T05:23:27.191Z,988.41
2023-01-02T05:24:27.417Z,988.42
2023-01-02T05:25:27.002Z,988.40
2023-01-02T05:26:27.007Z,988.47
2023-01-02T05:27:27.244Z,988.50
2023-01-02T05:28:26.972Z,988.44
2023-01-02T05:29:26.978Z,988.49
2023-01-02T05:30:26.951Z,988.45
2023-01-02T05:31:26.965Z,988.45
2023-01-02T05:32:26.996Z,988.48
2023-01-02T05:33:26.921Z,988.57
2023-01-02T05:34:27.001Z,988.55
2023-01-02T05:35:32.101Z,988.53
2023-01-02T05:36:27.862Z,988.61
2023-01-02T05:37:26.943Z,988.57
2023-01-02T05:38:26.975Z,988.58
2023-01-02T05:39:27.086Z,988.55
2023-01-02T05:40:26.897Z,988.59
2023-01-02T05:41:26.816Z,988.66
2023-01-02T05:42:26.884Z,988.66
2023-01-02T05:43:26.766Z,988.63
2023-01-02T05:44:26.798Z,988.65
2023-01-02T05:45:26.751Z,988.63
2023-01-02T05:46:26.760Z,988.65
2023-01-02T05:47:26.724Z,988.60
2023-01-02T05:48:26.706Z,988.54
2023-01-02T05:49:26.724Z,988.66
2023-01-02T05:50:26.684Z,988.63
2023-01-02T05:51:26.664Z,988.69
2023-01-02T05:52:26.665Z,988.62
2023-01-02T05:53:26.635Z,988.69
2023-01-02T05:54:26.662Z,988.60
2023-01-02T05:55:26.614Z,988.63
2023-01-02T05:56:26.607Z,988.60
2023-01-02T05:57:26.589Z,988.54
2023-01-02T05:58:26.585Z,988.70
2023-01-02T05:59:26.602Z,988.79
2023-01-02T06:00:26.549Z,988.72
2023-01-02T06:01:26.589Z,988.74
2023-01-02T06:02:26.615Z,988.69
2023-01-02T06:03:26.597Z,988.61
2023-01-02T06:04:26.539Z,988.67
2023-01-02T06:05:26.482Z,988.76
2023-01-02T06:06:26.474Z,988.72
2023-01-02T06:07:26.473Z,988.75
2023-01-02T06:08:26.450Z,988.79
2023-01-02T06:09:26.467Z,988.76
2023-01-02T06:10:26.430Z,988.80
2023-01-02T06:11:26.405Z,988.68
2023-01-02T06:12:26.394Z,988.70
2023-01-02T06:13:26.374Z,988.80
2023-01-02T06:14:26.407Z,988.77
2023-01-02T06:15:26.352Z,988.79
2023-01-02T06:16:26.415Z,988.80
2023-01-02T06:17:26.412Z,988.73
2023-01-02T06:18:26.314Z,988.70
2023-01-02T06:19:26.334Z,988.78
2023-01-02T06:20:26.294Z,988.74
2023-01-02T06:21:26.276Z,988.79
2023-01-02T06:22:26.265Z,988.77
2023-01-02T06:23:26.247Z,988.80
2023-01-02T06:24:26.265Z,988.85
2023-01-02T06:25:26.223Z,988.68
2023-01-02T06:26:31.192Z,988.77
2023-01-02T06:27:27.194Z,988.72
2023-01-02T06:28:26.191Z,988.71
2023-01-02T06:29:26.193Z,988.80
2023-01-02T06:30:26.163Z,988.68
2023-01-02T06:31:26.183Z,988.67
2023-01-02T06:32:26.135Z,988.76
2023-01-02T06:33:26.115Z,988.78
2023-01-02T06:34:27.073Z,988.78
2023-01-02T06:35:26.098Z,988.74
2023-01-02T06:36:26.085Z,988.76
2023-01-02T06:37:26.068Z,988.79
2023-01-02T06:38:26.065Z,988.84
2023-01-02T06:39:26.074Z,988.86
2023-01-02T06:40:26.027Z,988.85
2023-01-02T06:41:26.021Z,988.85
2023-01-02T06:42:26.350Z,988.84
2023-01-02T06:43:26.007Z,988.76
2023-01-02T06:44:25.973Z,988.90
2023-01-02T06:45:26.018Z,988.84
2023-01-02T06:46:25.957Z,988.88
2023-01-02T06:47:25.935Z,988.89
2023-01-02T06:48:25.935Z,988.91
2023-01-02T06:49:25.917Z,988.84
2023-01-02T06:50:32.848Z,988.82
2023-01-02T06:51:26.890Z,988.85
2023-01-02T06:52:25.875Z,988.82
2023-01-02T06:53:25.854Z,988.84
2023-01-02T06:54:25.844Z,988.81
2023-01-02T06:55:25.859Z,988.73
2023-01-02T06:56:25.836Z,988.73
2023-01-02T06:57:25.804Z,988.79
2023-01-02T06:58:25.805Z,988.78
2023-01-02T06:59:25.788Z,988.69
2023-01-02T07:00:25.799Z,988.80
2023-01-02T07:01:25.802Z,988.68
2023-01-02T07:02:25.856Z,988.79
2023-01-02T07:03:25.732Z,988.77
2023-01-02T07:04:25.664Z,988.85
2023-01-02T07:05:25.754Z,988.82
2023-01-02T07:06:25.644Z,988.71
2023-01-02T07:07:25.686Z,988.80
2023-01-02T07:08:25.611Z,988.85
2023-01-02T07:09:25.598Z,988.88
2023-01-02T07:10:25.625Z,988.87
2023-01-02T07:11:25.584Z,988.83
2023-01-02T07:12:25.573Z,988.80
2023-01-02T07:13:26.503Z,988.83
2023-01-02T07:14:25.539Z,988.76
2023-01-02T07:15:25.542Z,988.89
2023-01-02T07:16:25.542Z,988.80
2023-01-02T07:17:25.492Z,988.85
2023-01-02T07:18:25.484Z,988.74
2023-01-02T07:19:25.491Z,988.76
2023-01-02T07:20:25.564Z,988.83
2023-01-02T07:21:25.435Z,988.79
2023-01-02T07:22:25.433Z,988.79
2023-01-02T07:23:25.415Z,988.80
2023-01-02T07:24:25.491Z,988.91
2023-01-02T07:25:25.415Z,988.86
2023-01-02T07:26:25.393Z,988.88
2023-01-02T07:27:25.379Z,988.87
2023-01-02T07:28:25.353Z,988.92
2023-01-02T07:29:25.343Z,988.83
2023-01-02T07:30:25.368Z,988.92
2023-01-02T07:31:25.333Z,988.96
2023-01-02T07:32:27.557Z,988.92
2023-01-02T07:33:25.283Z,988.96
2023-01-02T07:34:25.275Z,988.97
2023-01-02T07:35:25.283Z,988.90
2023-01-02T07:36:25.243Z,988.93
2023-01-02T07:37:26.177Z,988.93
2023-01-02T07:38:25.235Z,988.98
2023-01-02T07:39:25.213Z,989.03
2023-01-02T07:40:31.818Z,989.10
2023-01-02T07:41:26.174Z,989.02
2023-01-02T07:42:25.173Z,988.98
2023-01-02T07:43:25.149Z,988.98
2023-01-02T07:44:25.160Z,989.03
2023-01-02T07:45:25.152Z,988.88
2023-01-02T07:46:25.163Z,989.01
2023-01-02T07:47:25.107Z,989.05
2023-01-02T07:48:25.093Z,989.03
2023-01-02T07:49:25.074Z,989.05
2023-01-02T07:50:25.091Z,989.09
2023-01-02T07:51:27.706Z,989.10
2023-01-02T07:52:25.041Z,989.05
2023-01-02T07:53:25.026Z,989.01
2023-01-02T07:54:25.012Z,989.06
2023-01-02T07:55:25.022Z,988.98
2023-01-02T07:56:24.990Z,989.03
2023-01-02T07:57:24.962Z,988.95
2023-01-02T07:58:24.978Z,989.02
2023-01-02T07:59:24.946Z,988.93
2023-01-02T08:00:24.966Z,989.01
2023-01-02T08:01:25.111Z,988.95
2023-01-02T08:02:25.019Z,989.09
2023-01-02T08:03:24.887Z,988.93
2023-01-02T08:04:24.952Z,988.97
2023-01-02T08:05:24.900Z,988.98
2023-01-02T08:06:24.897Z,988.98
2023-01-02T08:07:24.832Z,989.03
2023-01-02T08:08:24.823Z,989.00
2023-01-02T08:09:24.828Z,988.99
2023-01-02T08:10:24.855Z,988.99
2023-01-02T08:11:24.795Z,989.02
2023-01-02T08:12:24.779Z,989.15
2023-01-02T08:13:24.774Z,989.15
2023-01-02T08:14:24.773Z,989.11
2023-01-02T08:15:24.764Z,989.11
2023-01-02T08:16:24.789Z,989.13
2023-01-02T08:17:24.763Z,989.16
2023-01-02T08:18:24.705Z,989.20
2023-01-02T08:19:24.692Z,989.19
2023-01-02T08:20:24.705Z,989.24
2023-01-02T08:21:24.665Z,989.27
2023-01-02T08:22:24.645Z,989.24
2023-01-02T08:23:24.643Z,989.17
2023-01-02T08:24:24.660Z,989.26
2023-01-02T08:25:24.633Z,989.31
2023-01-02T08:26:24.596Z,989.22
2023-01-02T08:27:24.581Z,989.19
2023-01-02T08:28:24.573Z,989.28
2023-01-02T08:29:24.560Z,989.26
2023-01-02T08:30:24.571Z,989.32
2023-01-02T08:31:24.591Z,989.42
2023-01-02T08:32:24.590Z,989.35
2023-01-02T08:33:24.511Z,989.37
2023-01-02T08:34:24.494Z,989.41
2023-01-02T08:35:37.341Z,989.40
2023-01-02T08:36:25.501Z,989.33
2023-01-02T08:37:24.442Z,989.34
2023-01-02T08:38:24.461Z,989.39
2023-01-02T08:39:24.425Z,989.45
2023-01-02T08:40:24.443Z,989.39
2023-01-02T08:41:24.393Z,989.41
2023-01-02T08:42:24.405Z,989.37
2023-01-02T08:43:24.373Z,989.27
2023-01-02T08:44:24.353Z,989.31
2023-01-02T08:45:24.382Z,989.31
2023-01-02T08:46:24.425Z,989.27
2023-01-02T08:47:24.311Z,989.23
2023-01-02T08:48:24.319Z,989.27
2023-01-02T08:49:24.363Z,989.20
2023-01-02T08:50:24.310Z,989.24
2023-01-02T08:51:24.263Z,989.25
2023-01-02T08:52:24.262Z,989.23
2023-01-02T08:53:24.242Z,989.23
2023-01-02T08:54:24.236Z,989.22
2023-01-02T08:55:24.250Z,989.25
2023-01-02T08:56:24.216Z,989.27
2023-01-02T08:57:24.184Z,989.24
2023-01-02T08:58:24.187Z,989.25
2023-01-02T08:59:24.152Z,989.32
2023-01-02T09:00:24.193Z,989.40
2023-01-02T09:01:24.323Z,989.36
2023-01-02T09:02:24.289Z,989.27
2023-01-02T09:03:24.235Z,989.24
2023-01-02T09:04:24.102Z,989.34
2023-01-02T09:05:24.102Z,989.36
2023-01-02T09:06:24.082Z,989.35
2023-01-02T09:07:24.066Z,989.35
2023-01-02T09:08:24.041Z,989.37
2023-01-02T09:09:24.034Z,989.29
2023-01-02T09:10:24.048Z,989.33
2023-01-02T09:11:24.038Z,989.35
2023-01-02T09:12:24.569Z,989.44
2023-01-02T09:13:23.980Z,989.50
2023-01-02T09:14:23.998Z,989.33
2023-01-02T09:15:23.982Z,989.41
2023-01-02T09:16:24.037Z,989.46
2023-01-02T09:17:23.935Z,989.41
2023-01-02T09:18:29.224Z,989.47
2023-01-02T09:19:24.902Z,989.42
2023-01-02T09:20:24.013Z,989.42
2023-01-02T09:21:23.883Z,989.40
2023-01-02T09:22:23.853Z,989.36
2023-01-02T09:23:23.915Z,989.38
2023-01-02T09:24:23.833Z,989.40
2023-01-02T09:25:24.632Z,989.53
2023-01-02T09:26:23.847Z,989.59
2023-01-02T09:27:23.812Z,989.55
2023-01-02T09:28:23.842Z,989.61
2023-01-02T09:29:24.365Z,989.60
2023-01-02T09:30:23.755Z,989.71
2023-01-02T09:31:23.834Z,989.70
2023-01-02T09:32:23.731Z,989.67
2023-01-02T09:33:23.723Z,989.73
2023-01-02T09:34:23.705Z,989.71
2023-01-02T09:35:23.695Z,989.71
2023-01-02T09:36:23.717Z,989.72
2023-01-02T09:37:23.733Z,989.75
2023-01-02T09:38:23.652Z,989.74
2023-01-02T09:39:27.094Z,989.68
2023-01-02T09:40:24.677Z,989.70
2023-01-02T09:41:23.695Z,989.67
2023-01-02T09:42:23.641Z,989.72
2023-01-02T09:43:23.597Z,989.75
2023-01-02T09:44:23.588Z,989.79
2023-01-02T09:45:23.593Z,989.79
2023-01-02T09:46:23.668Z,989.83
2023-01-02T09:47:23.532Z,989.77
2023-01-02T09:48:24.102Z,989.83
2023-01-02T09:49:23.630Z,989.82
2023-01-02T09:50:23.570Z,989.76
2023-01-02T09:51:23.522Z,989.78
2023-01-02T09:52:23.484Z,989.85
2023-01-02T09:53:23.513Z,989.87
2023-01-02T09:54:23.486Z,989.87
2023-01-02T09:55:23.438Z,989.95
2023-01-02T09:56:27.564Z,990.02
2023-01-02T09:57:24.427Z,990.06
2023-01-02T09:58:23.402Z,990.02
2023-01-02T09:59:23.391Z,990.12
2023-01-02T10:00:23.494Z,990.16
2023-01-02T10:01:23.433Z,990.23
2023-01-02T10:02:23.458Z,990.25
2023-01-02T10:03:23.533Z,990.36
2023-01-02T10:04:23.347Z,990.38
2023-01-02T10:05:23.315Z,990.49
2023-01-02T10:06:23.510Z,990.58
2023-01-02T10:07:23.282Z,990.60
2023-01-02T10:08:29.661Z,990.67
2023-01-02T10:09:24.431Z,990.64
2023-01-02T10:10:23.365Z,990.67
2023-01-02T10:11:23.261Z,990.65
2023-01-02T10:12:23.212Z,990.69
2023-01-02T10:13:32.633Z,990.65
2023-01-02T10:14:31.446Z,990.69
2023-01-02T10:15:24.172Z,990.67
2023-01-02T10:16:23.193Z,990.61
2023-01-02T10:17:23.172Z,990.75
2023-01-02T10:18:23.790Z,990.82
2023-01-02T10:19:23.133Z,990.82
2023-01-02T10:20:24.357Z,990.73
2023-01-02T10:21:23.194Z,990.79
2023-01-02T10:22:23.081Z,990.76
2023-01-02T10:23:23.071Z,990.75
2023-01-02T10:24:23.052Z,990.83
2023-01-02T10:25:23.068Z,990.78
2023-01-02T10:26:23.062Z,990.84
2023-01-02T10:27:23.062Z,990.78
2023-01-02T10:28:23.034Z,990.68
2023-01-02T10:29:23.012Z,990.68
2023-01-02T10:30:23.032Z,990.76
2023-01-02T10:31:23.022Z,990.83
2023-01-02T10:32:22.962Z,990.86
2023-01-02T10:33:23.432Z,990.87
2023-01-02T10:34:23.143Z,990.75
2023-01-02T10:35:23.717Z,990.76
2023-01-02T10:36:22.935Z,990.79
2023-01-02T10:37:22.891Z,990.79
2023-01-02T10:38:22.872Z,990.76
2023-01-02T10:39:22.863Z,990.78
2023-01-02T10:40:22.943Z,990.78
2023-01-02T10:41:22.871Z,990.80
2023-01-02T10:42:22.876Z,990.77
2023-01-02T10:43:22.820Z,990.82
2023-01-02T10:44:22.798Z,990.79
2023-01-02T10:45:22.893Z,990.74
2023-01-02T10:46:23.032Z,990.78
2023-01-02T10:47:22.871Z,990.77
2023-01-02T10:48:22.859Z,990.76
2023-01-02T10:49:22.736Z,990.74
2023-01-02T10:50:23.572Z,990.70
2023-01-02T10:51:22.729Z,990.76
2023-01-02T10:52:22.727Z,990.67
2023-01-02T10:53:22.716Z,990.72
2023-01-02T10:54:22.664Z,990.71
2023-01-02T10:55:22.801Z,990.73
2023-01-02T10:56:22.671Z,990.75
2023-01-02T10:57:22.634Z,990.65
2023-01-02T10:58:22.651Z,990.71
2023-01-02T10:59:22.601Z,990.68
2023-01-02T11:00:27.725Z,990.64
2023-01-02T11:01:23.728Z,990.75
2023-01-02T11:02:22.614Z,990.75
2023-01-02T11:03:22.563Z,990.67
2023-01-02T11:04:23.296Z,990.76
2023-01-02T11:05:22.529Z,990.83
2023-01-02T11:06:35.080Z,990.86
2023-01-02T11:07:23.498Z,990.73
2023-01-02T11:08:22.579Z,990.75
2023-01-02T11:09:23.193Z,990.70
2023-01-02T11:10:22.456Z,990.96
2023-01-02T11:11:22.470Z,990.83
2023-01-02T11:12:27.060Z,990.89
2023-01-02T11:13:23.430Z,990.92
2023-01-02T11:14:22.407Z,990.87
2023-01-02T11:15:22.425Z,990.98
2023-01-02T11:16:22.537Z,990.97
2023-01-02T11:17:22.371Z,991.07
2023-01-02T11:18:22.352Z,990.98
2023-01-02T11:19:29.221Z,991.10
2023-01-02T11:20:23.335Z,990.99
2023-01-02T11:21:22.351Z,991.13
2023-01-02T11:22:22.311Z,991.17
2023-01-02T11:23:22.302Z,991.20
2023-01-02T11:24:22.285Z,991.19
2023-01-02T11:25:22.276Z,991.12
2023-01-02T11:26:22.436Z,991.17
2023-01-02T11:27:22.270Z,991.09
2023-01-02T11:28:22.254Z,991.14
2023-01-02T11:29:22.213Z,991.12
2023-01-02T11:30:22.191Z,991.20
2023-01-02T11:31:22.232Z,991.20
2023-01-02T11:32:22.202Z,991.12
2023-01-02T11:33:22.161Z,991.16
2023-01-02T11:34:22.142Z,991.18
2023-01-02T11:35:22.134Z,991.21
2023-01-02T11:36:22.192Z,991.20
2023-01-02T11:37:22.134Z,991.22
2023-01-02T11:38:29.710Z,991.26
2023-01-02T11:39:23.069Z,991.27
2023-01-02T11:40:22.062Z,991.20
2023-01-02T11:41:22.064Z,991.29
2023-01-02T11:42:22.080Z,991.22
2023-01-02T11:43:22.037Z,991.31
2023-01-02T11:44:22.093Z,991.30
2023-01-02T11:45:22.008Z,991.31
2023-01-02T11:46:22.017Z,991.27
2023-01-02T11:47:22.016Z,991.27
2023-01-02T11:48:22.069Z,991.24
2023-01-02T11:49:25.856Z,991.24
2023-01-02T11:50:22.637Z,991.28
2023-01-02T11:51:25.725Z,991.25
2023-01-02T11:52:22.313Z,991.32
2023-01-02T11:53:22.524Z,991.30
2023-01-02T11:54:25.157Z,991.38
2023-01-02T11:55:21.976Z,991.43
2023-01-02T11:56:25.215Z,991.43
2023-01-02T11:57:21.901Z,991.39
2023-01-02T11:58:22.023Z,991.47
2023-01-02T11:59:21.918Z,991.43
2023-01-02T12:00:21.812Z,991.43
2023-01-02T12:01:21.840Z,991.37
2023-01-02T12:02:22.268Z,991.43
2023-01-02T12:03:22.012Z,991.44
2023-01-02T12:04:21.782Z,991.51
2023-01-02T12:05:21.740Z,991.48
2023-01-02T12:06:21.731Z,991.47
2023-01-02T12:07:21.755Z,991.50
2023-01-02T12:08:21.772Z,991.47
2023-01-02T12:09:22.602Z,991.43
2023-01-02T12:10:21.793Z,991.50
2023-01-02T12:11:21.673Z,991.44
2023-01-02T12:12:21.732Z,991.39
2023-01-02T12:13:21.644Z,991.44
2023-01-02T12:14:21.663Z,991.42
2023-01-02T12:15:21.778Z,991.45
2023-01-02T12:16:21.652Z,991.44
2023-01-02T12:17:21.712Z,991.56
2023-01-02T12:18:21.739Z,991.53
2023-01-02T12:19:21.557Z,991.60
2023-01-02T12:20:21.542Z,991.54
2023-01-02T12:21:21.544Z,991.55
2023-01-02T12:22:21.545Z,991.56
2023-01-02T12:23:21.535Z,991.65
2023-01-02T12:24:21.668Z,991.63
2023-01-02T12:25:21.481Z,991.68
2023-01-02T12:26:22.080Z,991.62
2023-01-02T12:27:21.489Z,991.68
2023-01-02T12:28:21.446Z,991.66